Alloy, WV

5:33 PM EDT on July 24, 2016 (GMT -0400)
Bonnie | | Change Station

Elev 663 ft 38.19 °N, 81.30 °W | Updated 25 seconds ago

Scattered Clouds
Scattered Clouds
98.8 °F
Feels Like 118 °F
N
2.2
Wind Variable Wind from WNW
Gusts 242.9 mph

Today
High -- | Low -- °F
--% Chance of Precip.
Yesterday
High -- | Low -- °F
Precip. -- in
Pressure 29.96 in
Visibility 10.0 miles
Clouds Scattered Clouds 5000 ft
Scattered Clouds 30000 ft
Heat Index 118 °F
Dew Point 79 °F
Humidity 53%
Rainfall 0.48 in
Snow Depth Not available.
6:21 AM 8:41 PM
Waning Gibbous, 73% visible
METAR KCRW 242054Z 29008KT 10SM SCT050TCU SCT300 36/21 A3000 RMK AO2 SLP146 TCU W-N AND DSNT SE T03560211 56014
Pressure 29.96 in
Visibility 10.0 miles
Clouds Scattered Clouds 5000 ft
Scattered Clouds 30000 ft
Heat Index 118 °F
Dew Point 79 °F
Humidity 53%
Rainfall 0.48 in
Snow Depth Not available.
6:21 AM 8:41 PM
Waning Gibbous, 73% visible
METAR KCRW 242054Z 29008KT 10SM SCT050TCU SCT300 36/21 A3000 RMK AO2 SLP146 TCU W-N AND DSNT SE T03560211 56014

10-Day Weather Forecast

Almanac

Astronomy

Jul. 24, 2016 Rise Set
Actual Time
Civil Twilight
Nautical Twilight
Astronomical Twilight
Moon
Length of Visible Light
Length of Day
Tomorrow will be .
, % of the Moon is Illuminated

Today's Extremes

State Highs State Lows

Community

WunderPhotos

Upload Photos

1,927,193 photos uploaded!

WunderBlog® & News

Nearby

Air Quality

  Air Quality AQ Index Pollutant
Not available.

Snow Depth

Station Depth Elevation

Earthquake Activity

City Distance Mag. Time & Date
Minimum magnitude displayed is 2.5.

Coastal Water Temperatures

Place Temperature

Stations

Nearby Weather Stations

Station Location Temp. Windchill Dew Point Humidity Wind Precip. Elev Updated Type
                   

Watches & Warnings

There are currently no watches in effect.